sensor_id;sensor_type;location;lat;lon;timestamp;P1;durP1;ratioP1;P2;durP2;ratioP2
78563;SDS011;67856;47.754;19.088;2024-03-08T00:02:36;5.82;;;2.80;;
78563;SDS011;67856;47.754;19.088;2024-03-08T00:05:39;6.45;;;3.20;;
78563;SDS011;67856;47.754;19.088;2024-03-08T00:08:42;6.30;;;3.17;;
78563;SDS011;67856;47.754;19.088;2024-03-08T00:11:44;7.50;;;3.20;;
78563;SDS011;67856;47.754;19.088;2024-03-08T00:14:47;5.88;;;3.00;;
78563;SDS011;67856;47.754;19.088;2024-03-08T00:17:49;6.28;;;3.40;;
78563;SDS011;67856;47.754;19.088;2024-03-08T00:20:52;6.30;;;3.05;;
78563;SDS011;67856;47.754;19.088;2024-03-08T00:23:55;5.00;;;2.53;;
78563;SDS011;67856;47.754;19.088;2024-03-08T00:26:57;8.10;;;3.00;;
78563;SDS011;67856;47.754;19.088;2024-03-08T00:30:01;6.78;;;2.80;;
78563;SDS011;67856;47.754;19.088;2024-03-08T00:33:04;5.75;;;2.90;;
78563;SDS011;67856;47.754;19.088;2024-03-08T00:36:06;3.92;;;2.75;;
78563;SDS011;67856;47.754;19.088;2024-03-08T00:39:09;6.35;;;3.17;;
78563;SDS011;67856;47.754;19.088;2024-03-08T00:42:14;6.60;;;2.97;;
78563;SDS011;67856;47.754;19.088;2024-03-08T00:45:16;6.55;;;3.30;;
78563;SDS011;67856;47.754;19.088;2024-03-08T00:48:19;5.40;;;2.80;;
78563;SDS011;67856;47.754;19.088;2024-03-08T00:51:21;5.53;;;2.90;;
78563;SDS011;67856;47.754;19.088;2024-03-08T00:54:24;5.60;;;2.70;;
78563;SDS011;67856;47.754;19.088;2024-03-08T00:57:26;6.03;;;3.23;;
78563;SDS011;67856;47.754;19.088;2024-03-08T01:00:30;4.43;;;2.78;;
78563;SDS011;67856;47.754;19.088;2024-03-08T01:03:32;5.68;;;2.88;;
78563;SDS011;67856;47.754;19.088;2024-03-08T01:06:36;4.45;;;2.60;;
78563;SDS011;67856;47.754;19.088;2024-03-08T01:09:39;5.72;;;2.88;;
78563;SDS011;67856;47.754;19.088;2024-03-08T01:12:41;6.27;;;3.33;;
78563;SDS011;67856;47.754;19.088;2024-03-08T01:15:45;5.40;;;2.85;;
78563;SDS011;67856;47.754;19.088;2024-03-08T01:18:47;5.55;;;2.70;;
78563;SDS011;67856;47.754;19.088;2024-03-08T01:21:50;4.55;;;2.63;;
78563;SDS011;67856;47.754;19.088;2024-03-08T01:24:53;4.68;;;2.80;;
78563;SDS011;67856;47.754;19.088;2024-03-08T01:27:55;5.77;;;3.30;;
78563;SDS011;67856;47.754;19.088;2024-03-08T01:30:58;5.43;;;2.90;;
78563;SDS011;67856;47.754;19.088;2024-03-08T01:34:00;4.18;;;2.47;;
78563;SDS011;67856;47.754;19.088;2024-03-08T01:37:03;6.90;;;3.25;;
78563;SDS011;67856;47.754;19.088;2024-03-08T01:40:06;6.22;;;2.97;;
78563;SDS011;67856;47.754;19.088;2024-03-08T01:43:26;4.73;;;2.90;;
78563;SDS011;67856;47.754;19.088;2024-03-08T01:46:33;6.22;;;3.33;;
78563;SDS011;67856;47.754;19.088;2024-03-08T01:49:35;5.18;;;2.83;;
78563;SDS011;67856;47.754;19.088;2024-03-08T01:52:38;4.82;;;2.92;;
78563;SDS011;67856;47.754;19.088;2024-03-08T01:55:40;4.35;;;2.92;;
78563;SDS011;67856;47.754;19.088;2024-03-08T01:58:43;4.47;;;2.57;;
78563;SDS011;67856;47.754;19.088;2024-03-08T02:01:46;5.28;;;2.55;;
78563;SDS011;67856;47.754;19.088;2024-03-08T02:04:49;4.95;;;2.90;;
78563;SDS011;67856;47.754;19.088;2024-03-08T02:07:55;6.15;;;3.30;;
78563;SDS011;67856;47.754;19.088;2024-03-08T02:10:58;5.13;;;3.05;;
78563;SDS011;67856;47.754;19.088;2024-03-08T02:14:01;6.50;;;2.60;;
78563;SDS011;67856;47.754;19.088;2024-03-08T02:17:03;5.72;;;2.83;;
78563;SDS011;67856;47.754;19.088;2024-03-08T02:20:07;5.35;;;2.75;;
78563;SDS011;67856;47.754;19.088;2024-03-08T02:23:11;6.43;;;2.75;;
78563;SDS011;67856;47.754;19.088;2024-03-08T02:26:13;5.18;;;2.63;;
78563;SDS011;67856;47.754;19.088;2024-03-08T02:29:16;5.80;;;2.83;;
78563;SDS011;67856;47.754;19.088;2024-03-08T02:32:18;5.75;;;3.05;;
78563;SDS011;67856;47.754;19.088;2024-03-08T02:35:21;7.57;;;2.90;;
78563;SDS011;67856;47.754;19.088;2024-03-08T02:38:23;5.30;;;2.40;;
78563;SDS011;67856;47.754;19.088;2024-03-08T02:41:27;5.03;;;2.40;;
78563;SDS011;67856;47.754;19.088;2024-03-08T02:44:30;4.73;;;2.73;;
78563;SDS011;67856;47.754;19.088;2024-03-08T02:47:32;6.00;;;2.72;;
78563;SDS011;67856;47.754;19.088;2024-03-08T02:50:35;4.75;;;3.08;;
78563;SDS011;67856;47.754;19.088;2024-03-08T02:53:38;6.20;;;3.03;;
78563;SDS011;67856;47.754;19.088;2024-03-08T02:56:41;4.32;;;2.72;;
78563;SDS011;67856;47.754;19.088;2024-03-08T02:59:43;6.67;;;2.70;;
78563;SDS011;67856;47.754;19.088;2024-03-08T03:02:47;5.10;;;2.70;;
78563;SDS011;67856;47.754;19.088;2024-03-08T03:05:49;3.35;;;2.20;;
78563;SDS011;67856;47.754;19.088;2024-03-08T03:08:52;4.72;;;2.50;;
78563;SDS011;67856;47.754;19.088;2024-03-08T03:11:54;3.92;;;2.67;;
78563;SDS011;67856;47.754;19.088;2024-03-08T03:14:57;4.20;;;2.60;;
78563;SDS011;67856;47.754;19.088;2024-03-08T03:17:59;5.00;;;2.55;;
78563;SDS011;67856;47.754;19.088;2024-03-08T03:21:02;3.67;;;2.35;;
78563;SDS011;67856;47.754;19.088;2024-03-08T03:24:09;4.88;;;2.30;;
78563;SDS011;67856;47.754;19.088;2024-03-08T03:27:13;4.32;;;2.28;;
78563;SDS011;67856;47.754;19.088;2024-03-08T03:30:17;3.37;;;2.13;;
78563;SDS011;67856;47.754;19.088;2024-03-08T03:33:23;4.13;;;2.30;;
78563;SDS011;67856;47.754;19.088;2024-03-08T03:36:26;5.30;;;2.50;;
78563;SDS011;67856;47.754;19.088;2024-03-08T03:39:30;3.83;;;2.10;;
78563;SDS011;67856;47.754;19.088;2024-03-08T03:42:36;4.35;;;2.42;;
78563;SDS011;67856;47.754;19.088;2024-03-08T03:45:40;4.87;;;2.43;;
78563;SDS011;67856;47.754;19.088;2024-03-08T03:48:44;2.85;;;1.90;;
78563;SDS011;67856;47.754;19.088;2024-03-08T03:51:46;4.10;;;2.17;;
78563;SDS011;67856;47.754;19.088;2024-03-08T03:54:49;4.05;;;2.58;;
78563;SDS011;67856;47.754;19.088;2024-03-08T03:57:51;4.65;;;2.20;;
78563;SDS011;67856;47.754;19.088;2024-03-08T04:00:54;3.83;;;2.30;;
78563;SDS011;67856;47.754;19.088;2024-03-08T04:03:56;4.20;;;2.30;;
78563;SDS011;67856;47.754;19.088;2024-03-08T04:06:59;5.18;;;2.35;;
78563;SDS011;67856;47.754;19.088;2024-03-08T04:10:02;4.25;;;2.40;;
78563;SDS011;67856;47.754;19.088;2024-03-08T04:13:05;4.50;;;2.38;;
78563;SDS011;67856;47.754;19.088;2024-03-08T04:16:07;3.80;;;2.10;;
78563;SDS011;67856;47.754;19.088;2024-03-08T04:19:10;3.35;;;2.00;;
78563;SDS011;67856;47.754;19.088;2024-03-08T04:22:12;3.33;;;2.20;;
78563;SDS011;67856;47.754;19.088;2024-03-08T04:25:15;3.03;;;1.98;;
78563;SDS011;67856;47.754;19.088;2024-03-08T04:28:17;3.65;;;2.15;;
78563;SDS011;67856;47.754;19.088;2024-03-08T04:31:19;3.80;;;2.13;;
78563;SDS011;67856;47.754;19.088;2024-03-08T04:34:23;4.22;;;2.20;;
78563;SDS011;67856;47.754;19.088;2024-03-08T04:37:26;4.47;;;2.20;;
78563;SDS011;67856;47.754;19.088;2024-03-08T04:40:29;4.05;;;2.10;;
78563;SDS011;67856;47.754;19.088;2024-03-08T04:43:33;3.83;;;2.30;;
78563;SDS011;67856;47.754;19.088;2024-03-08T04:46:36;3.63;;;1.87;;
78563;SDS011;67856;47.754;19.088;2024-03-08T04:49:38;2.95;;;2.05;;
78563;SDS011;67856;47.754;19.088;2024-03-08T04:52:41;3.80;;;1.95;;
78563;SDS011;67856;47.754;19.088;2024-03-08T04:55:43;3.75;;;2.22;;
78563;SDS011;67856;47.754;19.088;2024-03-08T04:58:46;3.28;;;1.90;;
78563;SDS011;67856;47.754;19.088;2024-03-08T05:01:48;3.20;;;1.90;;
78563;SDS011;67856;47.754;19.088;2024-03-08T05:04:51;3.20;;;1.85;;
78563;SDS011;67856;47.754;19.088;2024-03-08T05:07:53;3.03;;;2.10;;
78563;SDS011;67856;47.754;19.088;2024-03-08T05:10:56;3.45;;;1.75;;
78563;SDS011;67856;47.754;19.088;2024-03-08T05:13:58;3.58;;;2.10;;
78563;SDS011;67856;47.754;19.088;2024-03-08T05:17:01;2.93;;;1.93;;
78563;SDS011;67856;47.754;19.088;2024-03-08T05:20:04;3.53;;;1.88;;
78563;SDS011;67856;47.754;19.088;2024-03-08T05:23:10;2.85;;;2.05;;
78563;SDS011;67856;47.754;19.088;2024-03-08T05:26:12;4.10;;;2.22;;
78563;SDS011;67856;47.754;19.088;2024-03-08T05:29:16;3.03;;;1.90;;
78563;SDS011;67856;47.754;19.088;2024-03-08T05:32:18;2.97;;;1.97;;
78563;SDS011;67856;47.754;19.088;2024-03-08T05:35:20;3.50;;;1.67;;
78563;SDS011;67856;47.754;19.088;2024-03-08T05:38:23;3.67;;;2.10;;
78563;SDS011;67856;47.754;19.088;2024-03-08T05:41:26;3.85;;;1.70;;
78563;SDS011;67856;47.754;19.088;2024-03-08T05:44:28;5.45;;;2.80;;
78563;SDS011;67856;47.754;19.088;2024-03-08T05:47:33;5.47;;;3.50;;
78563;SDS011;67856;47.754;19.088;2024-03-08T05:50:35;8.50;;;4.00;;
78563;SDS011;67856;47.754;19.088;2024-03-08T05:53:38;6.53;;;4.05;;
78563;SDS011;67856;47.754;19.088;2024-03-08T05:56:40;8.88;;;4.40;;
78563;SDS011;67856;47.754;19.088;2024-03-08T05:59:44;9.93;;;5.75;;
78563;SDS011;67856;47.754;19.088;2024-03-08T06:02:47;9.63;;;5.97;;
78563;SDS011;67856;47.754;19.088;2024-03-08T06:05:49;9.73;;;6.18;;
78563;SDS011;67856;47.754;19.088;2024-03-08T06:08:52;16.55;;;8.20;;
78563;SDS011;67856;47.754;19.088;2024-03-08T06:11:55;10.85;;;6.30;;
78563;SDS011;67856;47.754;19.088;2024-03-08T06:14:57;10.77;;;6.45;;
78563;SDS011;67856;47.754;19.088;2024-03-08T06:18:00;11.87;;;6.13;;
78563;SDS011;67856;47.754;19.088;2024-03-08T06:21:05;12.45;;;6.18;;
78563;SDS011;67856;47.754;19.088;2024-03-08T06:24:08;11.10;;;6.07;;
78563;SDS011;67856;47.754;19.088;2024-03-08T06:27:10;12.45;;;5.88;;
78563;SDS011;67856;47.754;19.088;2024-03-08T06:30:13;9.65;;;6.07;;
78563;SDS011;67856;47.754;19.088;2024-03-08T06:33:18;12.17;;;6.03;;
78563;SDS011;67856;47.754;19.088;2024-03-08T06:36:20;9.40;;;5.68;;
78563;SDS011;67856;47.754;19.088;2024-03-08T06:39:26;12.43;;;6.10;;
78563;SDS011;67856;47.754;19.088;2024-03-08T06:42:30;14.95;;;5.95;;
78563;SDS011;67856;47.754;19.088;2024-03-08T06:45:37;11.43;;;5.90;;
78563;SDS011;67856;47.754;19.088;2024-03-08T06:48:39;14.13;;;6.60;;
78563;SDS011;67856;47.754;19.088;2024-03-08T06:51:42;12.20;;;5.65;;
78563;SDS011;67856;47.754;19.088;2024-03-08T06:54:45;12.95;;;6.38;;
78563;SDS011;67856;47.754;19.088;2024-03-08T06:57:47;16.00;;;6.20;;
78563;SDS011;67856;47.754;19.088;2024-03-08T07:00:50;15.55;;;6.90;;
78563;SDS011;67856;47.754;19.088;2024-03-08T07:03:54;13.07;;;6.50;;
78563;SDS011;67856;47.754;19.088;2024-03-08T07:06:59;19.10;;;8.57;;
78563;SDS011;67856;47.754;19.088;2024-03-08T07:10:01;19.67;;;7.75;;
78563;SDS011;67856;47.754;19.088;2024-03-08T07:13:04;15.50;;;7.43;;
78563;SDS011;67856;47.754;19.088;2024-03-08T07:16:07;19.75;;;7.63;;
78563;SDS011;67856;47.754;19.088;2024-03-08T07:19:13;27.20;;;8.27;;
78563;SDS011;67856;47.754;19.088;2024-03-08T07:22:16;21.40;;;7.20;;
78563;SDS011;67856;47.754;19.088;2024-03-08T07:25:19;16.67;;;7.45;;
78563;SDS011;67856;47.754;19.088;2024-03-08T07:28:31;16.85;;;7.53;;
78563;SDS011;67856;47.754;19.088;2024-03-08T07:31:33;17.45;;;7.72;;
78563;SDS011;67856;47.754;19.088;2024-03-08T07:35:04;19.30;;;7.77;;
78563;SDS011;67856;47.754;19.088;2024-03-08T07:38:07;18.92;;;7.13;;
78563;SDS011;67856;47.754;19.088;2024-03-08T07:41:11;14.55;;;7.10;;
78563;SDS011;67856;47.754;19.088;2024-03-08T07:44:17;19.42;;;6.60;;
78563;SDS011;67856;47.754;19.088;2024-03-08T07:47:20;17.58;;;7.03;;
78563;SDS011;67856;47.754;19.088;2024-03-08T07:50:26;24.83;;;7.47;;
78563;SDS011;67856;47.754;19.088;2024-03-08T07:53:28;18.15;;;6.70;;
78563;SDS011;67856;47.754;19.088;2024-03-08T07:56:31;24.05;;;7.57;;
78563;SDS011;67856;47.754;19.088;2024-03-08T07:59:33;17.85;;;6.60;;
78563;SDS011;67856;47.754;19.088;2024-03-08T08:02:36;17.02;;;6.05;;
78563;SDS011;67856;47.754;19.088;2024-03-08T08:05:41;17.67;;;7.23;;
78563;SDS011;67856;47.754;19.088;2024-03-08T08:08:44;18.83;;;6.55;;
78563;SDS011;67856;47.754;19.088;2024-03-08T08:11:46;18.67;;;6.70;;
78563;SDS011;67856;47.754;19.088;2024-03-08T08:14:49;15.85;;;6.22;;
78563;SDS011;67856;47.754;19.088;2024-03-08T08:17:52;16.50;;;6.40;;
78563;SDS011;67856;47.754;19.088;2024-03-08T08:20:55;13.97;;;6.50;;
78563;SDS011;67856;47.754;19.088;2024-03-08T08:23:58;14.93;;;6.18;;
78563;SDS011;67856;47.754;19.088;2024-03-08T08:27:00;23.15;;;6.40;;
78563;SDS011;67856;47.754;19.088;2024-03-08T08:30:03;14.13;;;6.10;;
78563;SDS011;67856;47.754;19.088;2024-03-08T08:33:10;16.65;;;6.07;;
78563;SDS011;67856;47.754;19.088;2024-03-08T08:36:13;19.33;;;6.83;;
78563;SDS011;67856;47.754;19.088;2024-03-08T08:39:15;17.70;;;6.10;;
78563;SDS011;67856;47.754;19.088;2024-03-08T08:42:19;11.80;;;6.25;;
78563;SDS011;67856;47.754;19.088;2024-03-08T08:45:22;11.40;;;6.35;;
78563;SDS011;67856;47.754;19.088;2024-03-08T08:48:28;16.25;;;6.90;;
78563;SDS011;67856;47.754;19.088;2024-03-08T08:51:37;13.10;;;6.20;;
78563;SDS011;67856;47.754;19.088;2024-03-08T08:54:40;18.77;;;6.70;;
78563;SDS011;67856;47.754;19.088;2024-03-08T08:57:43;18.85;;;8.52;;
78563;SDS011;67856;47.754;19.088;2024-03-08T09:00:46;19.00;;;7.25;;
78563;SDS011;67856;47.754;19.088;2024-03-08T09:03:49;20.23;;;7.70;;
78563;SDS011;67856;47.754;19.088;2024-03-08T09:06:54;22.47;;;7.93;;
78563;SDS011;67856;47.754;19.088;2024-03-08T09:09:59;21.00;;;7.03;;
78563;SDS011;67856;47.754;19.088;2024-03-08T09:13:09;14.98;;;6.75;;
78563;SDS011;67856;47.754;19.088;2024-03-08T09:16:25;19.23;;;7.35;;
78563;SDS011;67856;47.754;19.088;2024-03-08T09:19:28;20.08;;;7.00;;
78563;SDS011;67856;47.754;19.088;2024-03-08T09:22:31;17.97;;;7.27;;
78563;SDS011;67856;47.754;19.088;2024-03-08T09:25:34;23.17;;;7.70;;
78563;SDS011;67856;47.754;19.088;2024-03-08T09:28:40;21.65;;;7.25;;
78563;SDS011;67856;47.754;19.088;2024-03-08T09:31:42;27.85;;;7.57;;
78563;SDS011;67856;47.754;19.088;2024-03-08T09:34:45;17.83;;;7.88;;
78563;SDS011;67856;47.754;19.088;2024-03-08T09:37:48;21.07;;;8.07;;
78563;SDS011;67856;47.754;19.088;2024-03-08T09:40:54;22.98;;;8.50;;
78563;SDS011;67856;47.754;19.088;2024-03-08T09:44:00;23.15;;;8.45;;
78563;SDS011;67856;47.754;19.088;2024-03-08T09:47:03;24.00;;;8.68;;
78563;SDS011;67856;47.754;19.088;2024-03-08T09:50:07;27.73;;;9.10;;
78563;SDS011;67856;47.754;19.088;2024-03-08T09:53:11;22.40;;;8.87;;
78563;SDS011;67856;47.754;19.088;2024-03-08T09:56:14;23.50;;;8.77;;
78563;SDS011;67856;47.754;19.088;2024-03-08T09:59:17;20.63;;;8.65;;
78563;SDS011;67856;47.754;19.088;2024-03-08T10:02:25;20.30;;;8.73;;
78563;SDS011;67856;47.754;19.088;2024-03-08T10:05:28;24.42;;;9.23;;
78563;SDS011;67856;47.754;19.088;2024-03-08T10:08:34;23.67;;;8.43;;
78563;SDS011;67856;47.754;19.088;2024-03-08T10:11:37;26.17;;;9.05;;
78563;SDS011;67856;47.754;19.088;2024-03-08T10:14:40;24.65;;;8.68;;
78563;SDS011;67856;47.754;19.088;2024-03-08T10:17:43;22.50;;;8.77;;
78563;SDS011;67856;47.754;19.088;2024-03-08T10:21:07;23.02;;;8.63;;
78563;SDS011;67856;47.754;19.088;2024-03-08T10:24:12;25.40;;;8.50;;
78563;SDS011;67856;47.754;19.088;2024-03-08T10:27:18;17.92;;;8.38;;
78563;SDS011;67856;47.754;19.088;2024-03-08T10:30:23;16.65;;;8.43;;
78563;SDS011;67856;47.754;19.088;2024-03-08T10:33:25;22.52;;;7.90;;
78563;SDS011;67856;47.754;19.088;2024-03-08T10:36:28;20.45;;;8.48;;
78563;SDS011;67856;47.754;19.088;2024-03-08T10:39:34;16.97;;;7.50;;
78563;SDS011;67856;47.754;19.088;2024-03-08T10:42:40;23.48;;;8.32;;
78563;SDS011;67856;47.754;19.088;2024-03-08T10:45:46;15.77;;;7.75;;
78563;SDS011;67856;47.754;19.088;2024-03-08T10:48:53;22.25;;;8.15;;
78563;SDS011;67856;47.754;19.088;2024-03-08T10:51:58;23.10;;;8.68;;
78563;SDS011;67856;47.754;19.088;2024-03-08T10:55:02;21.40;;;9.20;;
78563;SDS011;67856;47.754;19.088;2024-03-08T10:58:05;25.02;;;8.07;;
78563;SDS011;67856;47.754;19.088;2024-03-08T11:01:08;19.77;;;7.97;;
78563;SDS011;67856;47.754;19.088;2024-03-08T11:04:12;24.42;;;8.82;;
78563;SDS011;67856;47.754;19.088;2024-03-08T11:07:16;17.92;;;8.15;;
78563;SDS011;67856;47.754;19.088;2024-03-08T11:10:22;19.37;;;8.03;;
78563;SDS011;67856;47.754;19.088;2024-03-08T11:13:41;15.80;;;7.55;;
78563;SDS011;67856;47.754;19.088;2024-03-08T11:16:48;17.35;;;7.82;;
78563;SDS011;67856;47.754;19.088;2024-03-08T11:19:51;15.88;;;8.20;;
78563;SDS011;67856;47.754;19.088;2024-03-08T11:23:04;19.65;;;7.93;;
78563;SDS011;67856;47.754;19.088;2024-03-08T11:26:18;15.10;;;7.33;;
78563;SDS011;67856;47.754;19.088;2024-03-08T11:32:31;18.30;;;7.78;;
78563;SDS011;67856;47.754;19.088;2024-03-08T11:35:35;18.10;;;7.68;;
78563;SDS011;67856;47.754;19.088;2024-03-08T11:38:40;19.52;;;7.60;;
78563;SDS011;67856;47.754;19.088;2024-03-08T11:41:46;17.97;;;7.87;;
78563;SDS011;67856;47.754;19.088;2024-03-08T11:44:50;24.67;;;9.55;;
78563;SDS011;67856;47.754;19.088;2024-03-08T11:47:52;18.17;;;9.40;;
78563;SDS011;67856;47.754;19.088;2024-03-08T11:51:00;21.33;;;9.25;;
78563;SDS011;67856;47.754;19.088;2024-03-08T11:54:04;21.48;;;9.48;;
78563;SDS011;67856;47.754;19.088;2024-03-08T11:57:08;21.60;;;9.43;;
78563;SDS011;67856;47.754;19.088;2024-03-08T12:00:15;28.00;;;9.40;;
78563;SDS011;67856;47.754;19.088;2024-03-08T12:03:27;18.65;;;9.07;;
78563;SDS011;67856;47.754;19.088;2024-03-08T12:06:40;27.25;;;9.73;;
78563;SDS011;67856;47.754;19.088;2024-03-08T12:09:43;23.77;;;9.20;;
78563;SDS011;67856;47.754;19.088;2024-03-08T12:12:53;22.20;;;9.77;;
78563;SDS011;67856;47.754;19.088;2024-03-08T12:16:02;27.08;;;11.35;;
78563;SDS011;67856;47.754;19.088;2024-03-08T12:19:10;23.63;;;11.73;;
78563;SDS011;67856;47.754;19.088;2024-03-08T12:22:14;28.05;;;11.43;;
78563;SDS011;67856;47.754;19.088;2024-03-08T12:25:17;23.80;;;11.35;;
78563;SDS011;67856;47.754;19.088;2024-03-08T12:28:21;29.60;;;12.03;;
78563;SDS011;67856;47.754;19.088;2024-03-08T12:31:24;29.55;;;11.80;;
78563;SDS011;67856;47.754;19.088;2024-03-08T12:34:27;22.60;;;11.30;;
78563;SDS011;67856;47.754;19.088;2024-03-08T12:37:31;22.42;;;10.50;;
78563;SDS011;67856;47.754;19.088;2024-03-08T12:40:33;18.83;;;10.32;;
78563;SDS011;67856;47.754;19.088;2024-03-08T12:43:47;22.60;;;9.73;;
78563;SDS011;67856;47.754;19.088;2024-03-08T12:46:53;19.58;;;10.00;;
78563;SDS011;67856;47.754;19.088;2024-03-08T12:49:56;19.90;;;10.18;;
78563;SDS011;67856;47.754;19.088;2024-03-08T12:52:59;19.50;;;9.18;;
78563;SDS011;67856;47.754;19.088;2024-03-08T12:56:02;18.95;;;9.73;;
78563;SDS011;67856;47.754;19.088;2024-03-08T12:59:07;20.43;;;9.47;;
78563;SDS011;67856;47.754;19.088;2024-03-08T13:02:10;24.33;;;10.00;;
78563;SDS011;67856;47.754;19.088;2024-03-08T13:05:13;22.65;;;9.80;;
78563;SDS011;67856;47.754;19.088;2024-03-08T13:08:16;20.92;;;9.52;;
78563;SDS011;67856;47.754;19.088;2024-03-08T13:11:20;22.00;;;10.05;;
78563;SDS011;67856;47.754;19.088;2024-03-08T13:14:23;18.47;;;9.43;;
78563;SDS011;67856;47.754;19.088;2024-03-08T13:17:26;22.33;;;10.10;;
78563;SDS011;67856;47.754;19.088;2024-03-08T13:20:29;20.52;;;9.25;;
78563;SDS011;67856;47.754;19.088;2024-03-08T13:23:42;21.40;;;9.65;;
78563;SDS011;67856;47.754;19.088;2024-03-08T13:26:51;18.25;;;8.93;;
78563;SDS011;67856;47.754;19.088;2024-03-08T13:29:54;20.37;;;8.80;;
78563;SDS011;67856;47.754;19.088;2024-03-08T13:32:56;20.45;;;9.43;;
78563;SDS011;67856;47.754;19.088;2024-03-08T13:35:59;20.20;;;9.02;;
78563;SDS011;67856;47.754;19.088;2024-03-08T13:39:06;18.75;;;8.95;;
78563;SDS011;67856;47.754;19.088;2024-03-08T13:42:17;19.05;;;9.10;;
78563;SDS011;67856;47.754;19.088;2024-03-08T13:45:21;21.33;;;8.57;;
78563;SDS011;67856;47.754;19.088;2024-03-08T13:48:26;18.23;;;9.07;;
78563;SDS011;67856;47.754;19.088;2024-03-08T13:51:29;19.42;;;9.27;;
78563;SDS011;67856;47.754;19.088;2024-03-08T13:54:35;19.85;;;9.35;;
78563;SDS011;67856;47.754;19.088;2024-03-08T13:57:38;15.00;;;8.90;;
78563;SDS011;67856;47.754;19.088;2024-03-08T14:00:40;18.73;;;9.20;;
78563;SDS011;67856;47.754;19.088;2024-03-08T14:03:45;17.58;;;8.82;;
78563;SDS011;67856;47.754;19.088;2024-03-08T14:06:48;17.13;;;9.00;;
78563;SDS011;67856;47.754;19.088;2024-03-08T14:09:51;16.15;;;8.68;;
78563;SDS011;67856;47.754;19.088;2024-03-08T14:12:55;17.30;;;8.48;;
78563;SDS011;67856;47.754;19.088;2024-03-08T14:15:57;15.70;;;8.50;;
78563;SDS011;67856;47.754;19.088;2024-03-08T14:19:00;16.77;;;8.30;;
78563;SDS011;67856;47.754;19.088;2024-03-08T14:22:07;19.92;;;9.15;;
78563;SDS011;67856;47.754;19.088;2024-03-08T14:25:12;16.38;;;8.70;;
78563;SDS011;67856;47.754;19.088;2024-03-08T14:28:23;19.58;;;8.77;;
78563;SDS011;67856;47.754;19.088;2024-03-08T14:31:25;14.97;;;8.00;;
78563;SDS011;67856;47.754;19.088;2024-03-08T14:34:28;18.98;;;9.43;;
78563;SDS011;67856;47.754;19.088;2024-03-08T14:37:31;20.45;;;10.13;;
78563;SDS011;67856;47.754;19.088;2024-03-08T14:40:34;31.35;;;9.80;;
78563;SDS011;67856;47.754;19.088;2024-03-08T14:43:38;29.02;;;10.48;;
78563;SDS011;67856;47.754;19.088;2024-03-08T14:46:41;29.00;;;10.93;;
78563;SDS011;67856;47.754;19.088;2024-03-08T14:49:45;26.15;;;10.45;;
78563;SDS011;67856;47.754;19.088;2024-03-08T14:52:51;25.52;;;10.82;;
78563;SDS011;67856;47.754;19.088;2024-03-08T14:55:54;38.33;;;11.88;;
78563;SDS011;67856;47.754;19.088;2024-03-08T14:58:57;24.55;;;10.60;;
78563;SDS011;67856;47.754;19.088;2024-03-08T15:02:01;33.70;;;11.37;;
78563;SDS011;67856;47.754;19.088;2024-03-08T15:05:04;30.98;;;11.00;;
78563;SDS011;67856;47.754;19.088;2024-03-08T15:08:11;36.95;;;11.32;;
78563;SDS011;67856;47.754;19.088;2024-03-08T15:11:22;34.20;;;11.35;;
78563;SDS011;67856;47.754;19.088;2024-03-08T15:14:27;25.80;;;10.80;;
78563;SDS011;67856;47.754;19.088;2024-03-08T15:17:29;37.20;;;11.37;;
78563;SDS011;67856;47.754;19.088;2024-03-08T15:20:32;29.63;;;10.73;;
78563;SDS011;67856;47.754;19.088;2024-03-08T15:23:36;29.27;;;10.77;;
78563;SDS011;67856;47.754;19.088;2024-03-08T15:26:39;26.50;;;10.90;;
78563;SDS011;67856;47.754;19.088;2024-03-08T15:29:41;29.23;;;10.80;;
78563;SDS011;67856;47.754;19.088;2024-03-08T15:32:47;25.17;;;10.50;;
78563;SDS011;67856;47.754;19.088;2024-03-08T15:35:50;25.67;;;10.45;;
78563;SDS011;67856;47.754;19.088;2024-03-08T15:38:59;24.55;;;10.70;;
78563;SDS011;67856;47.754;19.088;2024-03-08T15:42:02;27.92;;;10.80;;
78563;SDS011;67856;47.754;19.088;2024-03-08T15:45:05;29.17;;;10.77;;
78563;SDS011;67856;47.754;19.088;2024-03-08T15:48:08;21.37;;;10.07;;
78563;SDS011;67856;47.754;19.088;2024-03-08T15:51:12;17.48;;;9.43;;
78563;SDS011;67856;47.754;19.088;2024-03-08T15:54:15;24.35;;;9.40;;
78563;SDS011;67856;47.754;19.088;2024-03-08T15:57:18;22.23;;;9.85;;
78563;SDS011;67856;47.754;19.088;2024-03-08T16:00:22;22.90;;;9.90;;
78563;SDS011;67856;47.754;19.088;2024-03-08T16:03:44;23.83;;;10.43;;
78563;SDS011;67856;47.754;19.088;2024-03-08T16:06:52;28.70;;;11.25;;
78563;SDS011;67856;47.754;19.088;2024-03-08T16:09:55;24.63;;;10.20;;
78563;SDS011;67856;47.754;19.088;2024-03-08T16:12:58;24.25;;;10.43;;
78563;SDS011;67856;47.754;19.088;2024-03-08T16:16:02;21.25;;;10.20;;
78563;SDS011;67856;47.754;19.088;2024-03-08T16:19:05;26.00;;;9.70;;
78563;SDS011;67856;47.754;19.088;2024-03-08T16:22:09;23.80;;;9.63;;
78563;SDS011;67856;47.754;19.088;2024-03-08T16:25:12;26.63;;;10.50;;
78563;SDS011;67856;47.754;19.088;2024-03-08T16:28:15;23.58;;;9.80;;
78563;SDS011;67856;47.754;19.088;2024-03-08T16:31:18;21.65;;;9.88;;
78563;SDS011;67856;47.754;19.088;2024-03-08T16:34:21;24.03;;;10.07;;
78563;SDS011;67856;47.754;19.088;2024-03-08T16:37:24;19.52;;;10.45;;
78563;SDS011;67856;47.754;19.088;2024-03-08T16:40:31;23.10;;;9.70;;
78563;SDS011;67856;47.754;19.088;2024-03-08T16:43:33;18.30;;;9.35;;
78563;SDS011;67856;47.754;19.088;2024-03-08T16:46:35;21.58;;;10.32;;
78563;SDS011;67856;47.754;19.088;2024-03-08T16:49:42;21.60;;;9.97;;
78563;SDS011;67856;47.754;19.088;2024-03-08T16:52:45;24.60;;;10.20;;
78563;SDS011;67856;47.754;19.088;2024-03-08T16:55:48;22.27;;;9.95;;
78563;SDS011;67856;47.754;19.088;2024-03-08T16:58:53;19.90;;;9.90;;
78563;SDS011;67856;47.754;19.088;2024-03-08T17:01:56;25.75;;;11.48;;
78563;SDS011;67856;47.754;19.088;2024-03-08T17:05:02;20.27;;;11.00;;
78563;SDS011;67856;47.754;19.088;2024-03-08T17:08:07;26.52;;;10.75;;
78563;SDS011;67856;47.754;19.088;2024-03-08T17:11:12;34.58;;;10.75;;
78563;SDS011;67856;47.754;19.088;2024-03-08T17:14:17;27.00;;;10.80;;
78563;SDS011;67856;47.754;19.088;2024-03-08T17:17:21;20.98;;;10.52;;
78563;SDS011;67856;47.754;19.088;2024-03-08T17:20:24;23.70;;;11.23;;
78563;SDS011;67856;47.754;19.088;2024-03-08T17:23:27;25.83;;;10.90;;
78563;SDS011;67856;47.754;19.088;2024-03-08T17:26:29;23.85;;;11.27;;
78563;SDS011;67856;47.754;19.088;2024-03-08T17:29:32;20.42;;;10.43;;
78563;SDS011;67856;47.754;19.088;2024-03-08T17:32:35;27.20;;;11.20;;
78563;SDS011;67856;47.754;19.088;2024-03-08T17:35:39;22.20;;;10.73;;
78563;SDS011;67856;47.754;19.088;2024-03-08T17:38:42;26.35;;;10.52;;
78563;SDS011;67856;47.754;19.088;2024-03-08T17:41:51;20.63;;;10.65;;
78563;SDS011;67856;47.754;19.088;2024-03-08T17:44:55;22.10;;;10.52;;
78563;SDS011;67856;47.754;19.088;2024-03-08T17:48:03;24.75;;;10.90;;
78563;SDS011;67856;47.754;19.088;2024-03-08T17:51:15;21.47;;;10.63;;
78563;SDS011;67856;47.754;19.088;2024-03-08T17:54:18;23.08;;;10.98;;
78563;SDS011;67856;47.754;19.088;2024-03-08T17:57:21;25.70;;;10.50;;
78563;SDS011;67856;47.754;19.088;2024-03-08T18:00:25;22.02;;;11.32;;
78563;SDS011;67856;47.754;19.088;2024-03-08T18:03:31;23.30;;;11.05;;